sensor_id;sensor_type;location;lat;lon;timestamp;temperature;humidity
10433;DHT22;5263;48.680;9.004;2022-10-19T00:00:20;11.80;99.90
10433;DHT22;5263;48.680;9.004;2022-10-19T00:02:46;11.70;99.90
10433;DHT22;5263;48.680;9.004;2022-10-19T00:05:11;11.60;99.90
10433;DHT22;5263;48.680;9.004;2022-10-19T00:07:37;11.50;99.90
10433;DHT22;5263;48.680;9.004;2022-10-19T00:10:03;11.30;99.90
10433;DHT22;5263;48.680;9.004;2022-10-19T00:12:29;11.50;99.90
10433;DHT22;5263;48.680;9.004;2022-10-19T00:14:55;11.20;99.90
10433;DHT22;5263;48.680;9.004;2022-10-19T00:17:21;11.00;99.90
10433;DHT22;5263;48.680;9.004;2022-10-19T00:19:46;11.00;99.90
10433;DHT22;5263;48.680;9.004;2022-10-19T00:22:12;11.10;99.90
10433;DHT22;5263;48.680;9.004;2022-10-19T00:24:37;11.20;99.90
10433;DHT22;5263;48.680;9.004;2022-10-19T00:27:03;11.20;99.90
10433;DHT22;5263;48.680;9.004;2022-10-19T00:29:31;11.20;99.90
10433;DHT22;5263;48.680;9.004;2022-10-19T00:31:57;11.30;99.90
10433;DHT22;5263;48.680;9.004;2022-10-19T00:34:23;11.40;99.90
10433;DHT22;5263;48.680;9.004;2022-10-19T00:36:48;11.10;99.90
10433;DHT22;5263;48.680;9.004;2022-10-19T00:39:15;11.00;99.90
10433;DHT22;5263;48.680;9.004;2022-10-19T00:41:43;11.20;99.90
10433;DHT22;5263;48.680;9.004;2022-10-19T00:46:40;11.10;99.90
10433;DHT22;5263;48.680;9.004;2022-10-19T00:49:18;11.20;99.90
10433;DHT22;5263;48.680;9.004;2022-10-19T00:51:48;11.20;99.90
10433;DHT22;5263;48.680;9.004;2022-10-19T00:54:16;11.20;99.90
10433;DHT22;5263;48.680;9.004;2022-10-19T00:56:44;11.20;99.90
10433;DHT22;5263;48.680;9.004;2022-10-19T00:59:13;11.20;99.90
10433;DHT22;5263;48.680;9.004;2022-10-19T01:01:40;11.10;99.90
10433;DHT22;5263;48.680;9.004;2022-10-19T01:04:08;11.10;99.90
10433;DHT22;5263;48.680;9.004;2022-10-19T01:06:34;11.20;99.90
10433;DHT22;5263;48.680;9.004;2022-10-19T01:09:01;11.20;99.90
10433;DHT22;5263;48.680;9.004;2022-10-19T01:17:12;11.10;99.90
10433;DHT22;5263;48.680;9.004;2022-10-19T01:19:58;11.00;99.90
10433;DHT22;5263;48.680;9.004;2022-10-19T01:28:00;11.10;99.90
10433;DHT22;5263;48.680;9.004;2022-10-19T01:41:50;10.50;99.90
10433;DHT22;5263;48.680;9.004;2022-10-19T01:44:37;10.60;99.90
10433;DHT22;5263;48.680;9.004;2022-10-19T01:49:58;10.40;99.90
10433;DHT22;5263;48.680;9.004;2022-10-19T01:52:25;10.30;99.90
10433;DHT22;5263;48.680;9.004;2022-10-19T01:54:56;10.30;99.90
10433;DHT22;5263;48.680;9.004;2022-10-19T01:57:29;10.40;99.90
10433;DHT22;5263;48.680;9.004;2022-10-19T01:59:56;10.50;99.90
10433;DHT22;5263;48.680;9.004;2022-10-19T02:02:24;10.70;99.90
10433;DHT22;5263;48.680;9.004;2022-10-19T02:04:53;10.70;99.90
10433;DHT22;5263;48.680;9.004;2022-10-19T02:07:21;10.80;99.90
10433;DHT22;5263;48.680;9.004;2022-10-19T02:09:49;11.00;99.90
10433;DHT22;5263;48.680;9.004;2022-10-19T02:12:15;11.00;99.90
10433;DHT22;5263;48.680;9.004;2022-10-19T02:14:48;11.20;99.90
10433;DHT22;5263;48.680;9.004;2022-10-19T02:17:22;11.10;99.90
10433;DHT22;5263;48.680;9.004;2022-10-19T02:19:49;11.00;99.90
10433;DHT22;5263;48.680;9.004;2022-10-19T02:22:15;11.00;99.90
10433;DHT22;5263;48.680;9.004;2022-10-19T02:24:41;11.10;99.90
10433;DHT22;5263;48.680;9.004;2022-10-19T02:27:07;11.30;99.90
10433;DHT22;5263;48.680;9.004;2022-10-19T02:29:35;11.40;99.90
10433;DHT22;5263;48.680;9.004;2022-10-19T02:32:01;11.30;99.90
10433;DHT22;5263;48.680;9.004;2022-10-19T02:34:27;11.30;99.90
10433;DHT22;5263;48.680;9.004;2022-10-19T02:36:54;11.30;99.90
10433;DHT22;5263;48.680;9.004;2022-10-19T02:39:20;11.30;99.90
10433;DHT22;5263;48.680;9.004;2022-10-19T02:44:32;11.70;99.90
10433;DHT22;5263;48.680;9.004;2022-10-19T02:47:11;11.80;99.90
10433;DHT22;5263;48.680;9.004;2022-10-19T02:49:40;11.80;99.90
10433;DHT22;5263;48.680;9.004;2022-10-19T02:52:08;11.60;99.90
10433;DHT22;5263;48.680;9.004;2022-10-19T02:54:36;11.70;99.90
10433;DHT22;5263;48.680;9.004;2022-10-19T02:57:18;11.90;99.90
10433;DHT22;5263;48.680;9.004;2022-10-19T02:59:44;11.60;99.90
10433;DHT22;5263;48.680;9.004;2022-10-19T03:02:11;11.60;99.90
10433;DHT22;5263;48.680;9.004;2022-10-19T03:04:36;11.60;99.90
10433;DHT22;5263;48.680;9.004;2022-10-19T03:07:02;11.70;99.90
10433;DHT22;5263;48.680;9.004;2022-10-19T03:09:28;11.60;99.90
10433;DHT22;5263;48.680;9.004;2022-10-19T03:11:56;11.70;99.90
10433;DHT22;5263;48.680;9.004;2022-10-19T03:14:22;11.70;99.90
10433;DHT22;5263;48.680;9.004;2022-10-19T03:16:47;11.70;99.90
10433;DHT22;5263;48.680;9.004;2022-10-19T03:19:13;11.70;99.90
10433;DHT22;5263;48.680;9.004;2022-10-19T03:21:38;11.70;99.90
10433;DHT22;5263;48.680;9.004;2022-10-19T03:24:04;11.80;99.90
10433;DHT22;5263;48.680;9.004;2022-10-19T03:26:30;11.80;99.90
10433;DHT22;5263;48.680;9.004;2022-10-19T03:28:56;11.90;99.90
10433;DHT22;5263;48.680;9.004;2022-10-19T03:31:21;11.90;99.90
10433;DHT22;5263;48.680;9.004;2022-10-19T03:33:47;11.90;99.90
10433;DHT22;5263;48.680;9.004;2022-10-19T03:36:22;11.80;99.90
10433;DHT22;5263;48.680;9.004;2022-10-19T03:38:50;11.80;99.90
10433;DHT22;5263;48.680;9.004;2022-10-19T03:41:16;11.90;99.90
10433;DHT22;5263;48.680;9.004;2022-10-19T03:43:42;11.90;99.90
10433;DHT22;5263;48.680;9.004;2022-10-19T03:46:08;12.00;99.90
10433;DHT22;5263;48.680;9.004;2022-10-19T03:48:34;12.00;99.90
10433;DHT22;5263;48.680;9.004;2022-10-19T03:51:08;12.20;99.90
10433;DHT22;5263;48.680;9.004;2022-10-19T03:53:34;12.40;99.90
10433;DHT22;5263;48.680;9.004;2022-10-19T03:56:04;12.60;99.90
10433;DHT22;5263;48.680;9.004;2022-10-19T03:58:33;12.60;99.90
10433;DHT22;5263;48.680;9.004;2022-10-19T04:00:59;12.70;99.90
10433;DHT22;5263;48.680;9.004;2022-10-19T04:03:24;12.60;99.90
10433;DHT22;5263;48.680;9.004;2022-10-19T04:05:50;12.70;99.90
10433;DHT22;5263;48.680;9.004;2022-10-19T04:08:16;12.80;99.90
10433;DHT22;5263;48.680;9.004;2022-10-19T04:10:42;12.90;99.90
10433;DHT22;5263;48.680;9.004;2022-10-19T04:13:07;12.80;99.90
10433;DHT22;5263;48.680;9.004;2022-10-19T04:15:33;12.90;99.90
10433;DHT22;5263;48.680;9.004;2022-10-19T04:17:59;13.10;99.90
10433;DHT22;5263;48.680;9.004;2022-10-19T04:20:25;12.70;99.90
10433;DHT22;5263;48.680;9.004;2022-10-19T04:22:51;12.80;99.90
10433;DHT22;5263;48.680;9.004;2022-10-19T04:25:17;12.70;99.90
10433;DHT22;5263;48.680;9.004;2022-10-19T04:27:43;12.90;99.90
10433;DHT22;5263;48.680;9.004;2022-10-19T04:30:09;12.70;99.90
10433;DHT22;5263;48.680;9.004;2022-10-19T04:32:35;12.60;99.90
10433;DHT22;5263;48.680;9.004;2022-10-19T04:35:01;12.60;99.90
10433;DHT22;5263;48.680;9.004;2022-10-19T04:37:26;12.70;99.90
10433;DHT22;5263;48.680;9.004;2022-10-19T04:39:52;12.70;99.90
10433;DHT22;5263;48.680;9.004;2022-10-19T04:42:18;12.90;99.90
10433;DHT22;5263;48.680;9.004;2022-10-19T04:44:43;13.10;99.90
10433;DHT22;5263;48.680;9.004;2022-10-19T04:47:09;13.20;99.90
10433;DHT22;5263;48.680;9.004;2022-10-19T04:49:34;13.20;99.90
10433;DHT22;5263;48.680;9.004;2022-10-19T04:52:00;12.90;99.90
10433;DHT22;5263;48.680;9.004;2022-10-19T04:54:26;12.80;99.90
10433;DHT22;5263;48.680;9.004;2022-10-19T04:56:51;12.80;99.90
10433;DHT22;5263;48.680;9.004;2022-10-19T04:59:18;12.80;99.90
10433;DHT22;5263;48.680;9.004;2022-10-19T05:01:44;12.70;99.90
10433;DHT22;5263;48.680;9.004;2022-10-19T05:04:10;12.60;99.90
10433;DHT22;5263;48.680;9.004;2022-10-19T05:06:36;12.50;99.90
10433;DHT22;5263;48.680;9.004;2022-10-19T05:09:02;12.50;99.90
10433;DHT22;5263;48.680;9.004;2022-10-19T05:11:27;12.60;99.90
10433;DHT22;5263;48.680;9.004;2022-10-19T05:13:55;12.70;99.90
10433;DHT22;5263;48.680;9.004;2022-10-19T05:16:22;12.80;99.90
10433;DHT22;5263;48.680;9.004;2022-10-19T05:18:49;12.80;99.90
10433;DHT22;5263;48.680;9.004;2022-10-19T05:21:16;12.70;99.90
10433;DHT22;5263;48.680;9.004;2022-10-19T05:23:42;12.80;99.90
10433;DHT22;5263;48.680;9.004;2022-10-19T05:26:13;12.80;99.90
10433;DHT22;5263;48.680;9.004;2022-10-19T05:28:40;12.80;99.90
10433;DHT22;5263;48.680;9.004;2022-10-19T05:33:31;12.60;99.90
10433;DHT22;5263;48.680;9.004;2022-10-19T05:35:57;12.60;99.90
10433;DHT22;5263;48.680;9.004;2022-10-19T05:38:23;12.70;99.90
10433;DHT22;5263;48.680;9.004;2022-10-19T05:40:48;12.90;99.90
10433;DHT22;5263;48.680;9.004;2022-10-19T05:43:14;12.90;99.90
10433;DHT22;5263;48.680;9.004;2022-10-19T05:45:40;12.80;99.90
10433;DHT22;5263;48.680;9.004;2022-10-19T05:48:05;12.90;99.90
10433;DHT22;5263;48.680;9.004;2022-10-19T05:50:31;13.00;99.90
10433;DHT22;5263;48.680;9.004;2022-10-19T05:52:57;13.10;99.90
10433;DHT22;5263;48.680;9.004;2022-10-19T05:55:22;13.10;99.90
10433;DHT22;5263;48.680;9.004;2022-10-19T05:57:48;13.20;99.90
10433;DHT22;5263;48.680;9.004;2022-10-19T06:00:14;13.10;99.90
10433;DHT22;5263;48.680;9.004;2022-10-19T06:02:39;13.20;99.90
10433;DHT22;5263;48.680;9.004;2022-10-19T06:05:05;13.30;99.90
10433;DHT22;5263;48.680;9.004;2022-10-19T06:07:31;13.20;99.90
10433;DHT22;5263;48.680;9.004;2022-10-19T06:09:57;13.20;99.90
10433;DHT22;5263;48.680;9.004;2022-10-19T06:12:22;13.30;99.90
10433;DHT22;5263;48.680;9.004;2022-10-19T06:14:51;13.10;99.90
10433;DHT22;5263;48.680;9.004;2022-10-19T06:17:17;13.20;99.90
10433;DHT22;5263;48.680;9.004;2022-10-19T06:19:42;13.20;99.90
10433;DHT22;5263;48.680;9.004;2022-10-19T06:22:08;13.30;99.90
10433;DHT22;5263;48.680;9.004;2022-10-19T06:24:34;13.40;99.90
10433;DHT22;5263;48.680;9.004;2022-10-19T06:26:59;13.50;99.90
10433;DHT22;5263;48.680;9.004;2022-10-19T06:29:25;13.40;99.90
10433;DHT22;5263;48.680;9.004;2022-10-19T06:31:51;13.30;99.90
10433;DHT22;5263;48.680;9.004;2022-10-19T06:34:18;13.50;99.90
10433;DHT22;5263;48.680;9.004;2022-10-19T06:36:44;13.50;99.90
10433;DHT22;5263;48.680;9.004;2022-10-19T06:39:09;13.50;99.90
10433;DHT22;5263;48.680;9.004;2022-10-19T06:41:35;13.60;99.90
10433;DHT22;5263;48.680;9.004;2022-10-19T06:44:01;13.60;99.90
10433;DHT22;5263;48.680;9.004;2022-10-19T06:46:27;13.60;99.90
10433;DHT22;5263;48.680;9.004;2022-10-19T06:48:55;13.60;99.90
10433;DHT22;5263;48.680;9.004;2022-10-19T06:51:22;13.70;99.90
10433;DHT22;5263;48.680;9.004;2022-10-19T06:53:49;13.60;99.90
10433;DHT22;5263;48.680;9.004;2022-10-19T06:56:15;13.60;99.90
10433;DHT22;5263;48.680;9.004;2022-10-19T06:58:41;13.50;99.90
10433;DHT22;5263;48.680;9.004;2022-10-19T07:01:08;13.40;99.90
10433;DHT22;5263;48.680;9.004;2022-10-19T07:03:34;13.30;99.90
10433;DHT22;5263;48.680;9.004;2022-10-19T07:06:02;13.50;99.90
10433;DHT22;5263;48.680;9.004;2022-10-19T07:08:29;13.40;99.90
10433;DHT22;5263;48.680;9.004;2022-10-19T07:10:58;13.30;99.90
10433;DHT22;5263;48.680;9.004;2022-10-19T07:13:24;13.30;99.90
10433;DHT22;5263;48.680;9.004;2022-10-19T07:15:57;13.40;99.90
10433;DHT22;5263;48.680;9.004;2022-10-19T07:18:23;13.40;99.90
10433;DHT22;5263;48.680;9.004;2022-10-19T07:21:00;13.40;99.90
10433;DHT22;5263;48.680;9.004;2022-10-19T07:23:28;13.30;99.90
10433;DHT22;5263;48.680;9.004;2022-10-19T07:25:54;13.30;99.90
10433;DHT22;5263;48.680;9.004;2022-10-19T07:28:24;13.30;99.90
10433;DHT22;5263;48.680;9.004;2022-10-19T07:30:50;13.40;99.90
10433;DHT22;5263;48.680;9.004;2022-10-19T07:33:16;13.40;99.90
10433;DHT22;5263;48.680;9.004;2022-10-19T07:35:41;13.40;99.90
10433;DHT22;5263;48.680;9.004;2022-10-19T07:38:07;13.50;99.90
10433;DHT22;5263;48.680;9.004;2022-10-19T07:40:33;13.70;99.90
10433;DHT22;5263;48.680;9.004;2022-10-19T07:42:59;13.70;99.90
10433;DHT22;5263;48.680;9.004;2022-10-19T07:45:25;13.70;99.90
10433;DHT22;5263;48.680;9.004;2022-10-19T07:47:50;13.80;99.90
10433;DHT22;5263;48.680;9.004;2022-10-19T07:50:16;13.70;99.90
10433;DHT22;5263;48.680;9.004;2022-10-19T07:52:41;13.90;99.90
10433;DHT22;5263;48.680;9.004;2022-10-19T07:55:07;13.80;99.90
10433;DHT22;5263;48.680;9.004;2022-10-19T07:57:33;13.90;99.90
10433;DHT22;5263;48.680;9.004;2022-10-19T07:59:59;14.00;99.90
10433;DHT22;5263;48.680;9.004;2022-10-19T08:02:24;14.20;99.90
10433;DHT22;5263;48.680;9.004;2022-10-19T08:04:50;14.20;99.90
10433;DHT22;5263;48.680;9.004;2022-10-19T08:07:16;14.10;99.90
10433;DHT22;5263;48.680;9.004;2022-10-19T08:09:41;14.30;99.90
10433;DHT22;5263;48.680;9.004;2022-10-19T08:12:07;14.40;99.90
10433;DHT22;5263;48.680;9.004;2022-10-19T08:14:34;14.70;99.90
10433;DHT22;5263;48.680;9.004;2022-10-19T08:17:00;14.70;99.90
10433;DHT22;5263;48.680;9.004;2022-10-19T08:19:26;14.60;99.90
10433;DHT22;5263;48.680;9.004;2022-10-19T08:21:52;14.50;99.90
10433;DHT22;5263;48.680;9.004;2022-10-19T08:24:18;14.60;99.90
10433;DHT22;5263;48.680;9.004;2022-10-19T08:26:44;14.80;99.90
10433;DHT22;5263;48.680;9.004;2022-10-19T08:29:18;14.80;99.90
10433;DHT22;5263;48.680;9.004;2022-10-19T08:31:45;14.70;99.90
10433;DHT22;5263;48.680;9.004;2022-10-19T08:34:12;14.70;99.90
10433;DHT22;5263;48.680;9.004;2022-10-19T08:36:38;14.60;99.90
10433;DHT22;5263;48.680;9.004;2022-10-19T08:39:06;14.50;99.90
10433;DHT22;5263;48.680;9.004;2022-10-19T08:42:07;14.70;99.90
10433;DHT22;5263;48.680;9.004;2022-10-19T08:49:51;15.10;99.90
10433;DHT22;5263;48.680;9.004;2022-10-19T08:52:31;15.20;99.90
10433;DHT22;5263;48.680;9.004;2022-10-19T08:55:03;15.40;99.90
10433;DHT22;5263;48.680;9.004;2022-10-19T09:00:11;15.00;99.90
10433;DHT22;5263;48.680;9.004;2022-10-19T09:06:01;15.30;99.90
10433;DHT22;5263;48.680;9.004;2022-10-19T09:08:29;15.40;99.90
10433;DHT22;5263;48.680;9.004;2022-10-19T09:10:55;15.40;99.90
10433;DHT22;5263;48.680;9.004;2022-10-19T09:13:44;15.30;99.90
10433;DHT22;5263;48.680;9.004;2022-10-19T09:16:12;15.20;99.90
10433;DHT22;5263;48.680;9.004;2022-10-19T09:18:39;15.10;99.90
10433;DHT22;5263;48.680;9.004;2022-10-19T09:21:09;14.80;99.90
10433;DHT22;5263;48.680;9.004;2022-10-19T09:26:30;14.70;99.90
10433;DHT22;5263;48.680;9.004;2022-10-19T09:29:02;14.90;99.90
10433;DHT22;5263;48.680;9.004;2022-10-19T09:31:33;14.70;99.90
10433;DHT22;5263;48.680;9.004;2022-10-19T09:34:24;14.70;99.90
10433;DHT22;5263;48.680;9.004;2022-10-19T09:36:56;14.40;99.90
10433;DHT22;5263;48.680;9.004;2022-10-19T09:39:23;14.30;99.90
10433;DHT22;5263;48.680;9.004;2022-10-19T09:41:58;14.50;99.90
10433;DHT22;5263;48.680;9.004;2022-10-19T09:44:26;14.50;99.90
10433;DHT22;5263;48.680;9.004;2022-10-19T09:49:41;14.70;99.90
10433;DHT22;5263;48.680;9.004;2022-10-19T09:55:00;14.80;99.90
10433;DHT22;5263;48.680;9.004;2022-10-19T09:57:26;14.90;99.90
10433;DHT22;5263;48.680;9.004;2022-10-19T09:59:52;14.90;99.90
10433;DHT22;5263;48.680;9.004;2022-10-19T10:02:30;14.90;99.90
10433;DHT22;5263;48.680;9.004;2022-10-19T10:05:04;14.80;99.90
10433;DHT22;5263;48.680;9.004;2022-10-19T10:07:36;14.80;99.90
10433;DHT22;5263;48.680;9.004;2022-10-19T10:10:37;14.70;99.90
10433;DHT22;5263;48.680;9.004;2022-10-19T10:13:04;14.70;99.90
10433;DHT22;5263;48.680;9.004;2022-10-19T10:15:40;14.90;99.90
10433;DHT22;5263;48.680;9.004;2022-10-19T10:18:14;14.90;99.90
10433;DHT22;5263;48.680;9.004;2022-10-19T10:20:59;14.60;99.90
10433;DHT22;5263;48.680;9.004;2022-10-19T10:23:28;14.60;99.90
10433;DHT22;5263;48.680;9.004;2022-10-19T10:25:57;14.40;99.90
10433;DHT22;5263;48.680;9.004;2022-10-19T10:28:25;14.50;99.90
10433;DHT22;5263;48.680;9.004;2022-10-19T10:31:02;14.60;99.90
10433;DHT22;5263;48.680;9.004;2022-10-19T10:33:30;14.80;99.90
10433;DHT22;5263;48.680;9.004;2022-10-19T10:36:05;14.70;99.90
10433;DHT22;5263;48.680;9.004;2022-10-19T10:38:39;14.90;99.90
10433;DHT22;5263;48.680;9.004;2022-10-19T10:41:16;14.90;99.90
10433;DHT22;5263;48.680;9.004;2022-10-19T10:43:54;15.10;99.90
10433;DHT22;5263;48.680;9.004;2022-10-19T10:46:27;15.00;99.90
10433;DHT22;5263;48.680;9.004;2022-10-19T10:48:59;15.10;99.90
10433;DHT22;5263;48.680;9.004;2022-10-19T10:51:33;14.90;99.90
10433;DHT22;5263;48.680;9.004;2022-10-19T10:54:29;14.60;99.90
10433;DHT22;5263;48.680;9.004;2022-10-19T11:02:34;14.70;99.90
10433;DHT22;5263;48.680;9.004;2022-10-19T11:07:40;14.50;99.90
10433;DHT22;5263;48.680;9.004;2022-10-19T11:10:30;14.80;99.90
10433;DHT22;5263;48.680;9.004;2022-10-19T11:13:12;14.80;99.90
10433;DHT22;5263;48.680;9.004;2022-10-19T11:15:53;14.80;99.90
10433;DHT22;5263;48.680;9.004;2022-10-19T11:21:08;15.20;99.90
10433;DHT22;5263;48.680;9.004;2022-10-19T11:23:54;15.10;99.90
10433;DHT22;5263;48.680;9.004;2022-10-19T11:31:58;15.10;99.90
10433;DHT22;5263;48.680;9.004;2022-10-19T11:37:34;15.60;99.90
10433;DHT22;5263;48.680;9.004;2022-10-19T11:40:21;15.80;99.90
10433;DHT22;5263;48.680;9.004;2022-10-19T11:46:12;15.70;99.90
10433;DHT22;5263;48.680;9.004;2022-10-19T11:51:24;15.70;99.90
10433;DHT22;5263;48.680;9.004;2022-10-19T12:10:20;16.10;99.90
10433;DHT22;5263;48.680;9.004;2022-10-19T12:12:52;16.10;99.90
10433;DHT22;5263;48.680;9.004;2022-10-19T12:15:28;15.60;99.90
10433;DHT22;5263;48.680;9.004;2022-10-19T12:18:00;15.80;99.90
10433;DHT22;5263;48.680;9.004;2022-10-19T12:23:10;15.90;99.90
10433;DHT22;5263;48.680;9.004;2022-10-19T12:25:42;15.80;99.90
10433;DHT22;5263;48.680;9.004;2022-10-19T12:28:21;15.90;99.90
10433;DHT22;5263;48.680;9.004;2022-10-19T12:30:49;16.10;99.90
10433;DHT22;5263;48.680;9.004;2022-10-19T12:33:24;16.20;99.90
10433;DHT22;5263;48.680;9.004;2022-10-19T12:38:59;16.30;99.90
10433;DHT22;5263;48.680;9.004;2022-10-19T12:41:41;15.90;99.90
10433;DHT22;5263;48.680;9.004;2022-10-19T12:44:20;16.00;99.90
10433;DHT22;5263;48.680;9.004;2022-10-19T12:46:54;15.90;99.90
10433;DHT22;5263;48.680;9.004;2022-10-19T12:51:59;15.90;99.90
10433;DHT22;5263;48.680;9.004;2022-10-19T12:54:30;15.90;99.90
10433;DHT22;5263;48.680;9.004;2022-10-19T12:56:59;16.00;99.90
10433;DHT22;5263;48.680;9.004;2022-10-19T12:59:31;16.20;99.90
10433;DHT22;5263;48.680;9.004;2022-10-19T13:01:57;16.10;99.90
10433;DHT22;5263;48.680;9.004;2022-10-19T13:04:31;15.80;99.90
10433;DHT22;5263;48.680;9.004;2022-10-19T13:07:07;16.10;99.90
10433;DHT22;5263;48.680;9.004;2022-10-19T13:09:47;16.20;99.90
10433;DHT22;5263;48.680;9.004;2022-10-19T13:14:55;16.10;99.90
10433;DHT22;5263;48.680;9.004;2022-10-19T13:25:37;16.40;99.90
10433;DHT22;5263;48.680;9.004;2022-10-19T13:38:29;16.20;99.90
10433;DHT22;5263;48.680;9.004;2022-10-19T13:41:05;16.20;99.90
10433;DHT22;5263;48.680;9.004;2022-10-19T13:46:18;17.10;99.90
10433;DHT22;5263;48.680;9.004;2022-10-19T13:51:52;17.90;99.90
10433;DHT22;5263;48.680;9.004;2022-10-19T14:00:27;17.30;99.90
10433;DHT22;5263;48.680;9.004;2022-10-19T14:03:24;17.20;99.90
10433;DHT22;5263;48.680;9.004;2022-10-19T14:06:12;17.30;99.90
10433;DHT22;5263;48.680;9.004;2022-10-19T14:11:58;16.70;99.90
10433;DHT22;5263;48.680;9.004;2022-10-19T14:14:38;16.90;99.90
10433;DHT22;5263;48.680;9.004;2022-10-19T14:17:14;16.80;99.90
10433;DHT22;5263;48.680;9.004;2022-10-19T14:19:48;16.70;99.90
10433;DHT22;5263;48.680;9.004;2022-10-19T14:22:19;16.50;99.90
10433;DHT22;5263;48.680;9.004;2022-10-19T14:24:45;16.30;99.90
10433;DHT22;5263;48.680;9.004;2022-10-19T14:27:17;16.30;99.90
10433;DHT22;5263;48.680;9.004;2022-10-19T14:29:46;16.50;99.90
10433;DHT22;5263;48.680;9.004;2022-10-19T14:32:12;16.30;99.90
10433;DHT22;5263;48.680;9.004;2022-10-19T14:34:41;16.30;99.90
10433;DHT22;5263;48.680;9.004;2022-10-19T14:37:16;16.40;99.90
10433;DHT22;5263;48.680;9.004;2022-10-19T14:39:45;16.30;99.90
10433;DHT22;5263;48.680;9.004;2022-10-19T14:42:20;16.50;99.90
10433;DHT22;5263;48.680;9.004;2022-10-19T14:44:46;16.10;99.90
10433;DHT22;5263;48.680;9.004;2022-10-19T14:47:21;16.30;99.90
10433;DHT22;5263;48.680;9.004;2022-10-19T14:49:48;16.30;99.90
10433;DHT22;5263;48.680;9.004;2022-10-19T14:52:30;16.30;99.90
10433;DHT22;5263;48.680;9.004;2022-10-19T14:54:59;16.00;99.90
10433;DHT22;5263;48.680;9.004;2022-10-19T14:57:32;16.30;99.90
10433;DHT22;5263;48.680;9.004;2022-10-19T15:00:02;16.30;99.90
10433;DHT22;5263;48.680;9.004;2022-10-19T15:04:55;16.30;99.90
10433;DHT22;5263;48.680;9.004;2022-10-19T15:07:34;16.40;99.90
10433;DHT22;5263;48.680;9.004;2022-10-19T15:10:06;16.20;99.90
10433;DHT22;5263;48.680;9.004;2022-10-19T15:12:42;16.10;99.90
10433;DHT22;5263;48.680;9.004;2022-10-19T15:15:32;16.10;99.90
10433;DHT22;5263;48.680;9.004;2022-10-19T15:20:30;15.90;99.90
10433;DHT22;5263;48.680;9.004;2022-10-19T15:22:58;15.70;99.90
10433;DHT22;5263;48.680;9.004;2022-10-19T15:25:31;15.60;99.90
10433;DHT22;5263;48.680;9.004;2022-10-19T15:28:17;15.60;99.90
10433;DHT22;5263;48.680;9.004;2022-10-19T15:30:43;15.50;99.90
10433;DHT22;5263;48.680;9.004;2022-10-19T15:33:13;15.50;99.90
10433;DHT22;5263;48.680;9.004;2022-10-19T15:35:42;15.40;99.90
10433;DHT22;5263;48.680;9.004;2022-10-19T15:38:25;15.40;99.90
10433;DHT22;5263;48.680;9.004;2022-10-19T15:41:15;15.40;99.90
10433;DHT22;5263;48.680;9.004;2022-10-19T15:43:45;15.40;99.90
10433;DHT22;5263;48.680;9.004;2022-10-19T15:53:50;15.20;99.90
10433;DHT22;5263;48.680;9.004;2022-10-19T15:56:16;15.20;99.90
10433;DHT22;5263;48.680;9.004;2022-10-19T15:58:42;15.20;99.90
10433;DHT22;5263;48.680;9.004;2022-10-19T16:01:13;15.20;99.90
10433;DHT22;5263;48.680;9.004;2022-10-19T16:03:40;15.30;99.90
10433;DHT22;5263;48.680;9.004;2022-10-19T16:06:05;15.10;99.90
10433;DHT22;5263;48.680;9.004;2022-10-19T16:08:31;14.90;99.90
10433;DHT22;5263;48.680;9.004;2022-10-19T16:10:57;14.90;99.90
10433;DHT22;5263;48.680;9.004;2022-10-19T16:13:22;14.90;99.90
10433;DHT22;5263;48.680;9.004;2022-10-19T16:15:48;15.00;99.90
10433;DHT22;5263;48.680;9.004;2022-10-19T16:18:15;14.90;99.90
10433;DHT22;5263;48.680;9.004;2022-10-19T16:20:41;14.90;99.90
10433;DHT22;5263;48.680;9.004;2022-10-19T16:23:08;14.50;99.90
10433;DHT22;5263;48.680;9.004;2022-10-19T16:25:33;14.40;99.90
10433;DHT22;5263;48.680;9.004;2022-10-19T16:27:59;14.40;99.90
10433;DHT22;5263;48.680;9.004;2022-10-19T16:30:25;14.40;99.90
10433;DHT22;5263;48.680;9.004;2022-10-19T16:32:50;14.40;99.90
10433;DHT22;5263;48.680;9.004;2022-10-19T16:35:16;14.30;99.90
10433;DHT22;5263;48.680;9.004;2022-10-19T16:37:42;14.20;99.90
10433;DHT22;5263;48.680;9.004;2022-10-19T16:40:08;14.00;99.90
10433;DHT22;5263;48.680;9.004;2022-10-19T16:42:33;14.00;99.90
10433;DHT22;5263;48.680;9.004;2022-10-19T16:44:59;13.90;99.90
10433;DHT22;5263;48.680;9.004;2022-10-19T16:47:25;13.80;99.90
10433;DHT22;5263;48.680;9.004;2022-10-19T16:49:57;13.70;99.90
10433;DHT22;5263;48.680;9.004;2022-10-19T16:52:23;13.70;99.90
10433;DHT22;5263;48.680;9.004;2022-10-19T16:54:48;13.70;99.90
10433;DHT22;5263;48.680;9.004;2022-10-19T16:57:14;13.50;99.90
10433;DHT22;5263;48.680;9.004;2022-10-19T16:59:40;13.50;99.90
10433;DHT22;5263;48.680;9.004;2022-10-19T17:02:06;13.50;99.90
10433;DHT22;5263;48.680;9.004;2022-10-19T17:04:31;13.40;99.90
10433;DHT22;5263;48.680;9.004;2022-10-19T17:06:57;13.30;99.90
10433;DHT22;5263;48.680;9.004;2022-10-19T17:09:23;13.30;99.90
10433;DHT22;5263;48.680;9.004;2022-10-19T17:11:49;13.30;99.90
10433;DHT22;5263;48.680;9.004;2022-10-19T17:14:15;13.20;99.90
10433;DHT22;5263;48.680;9.004;2022-10-19T17:16:40;13.00;99.90
10433;DHT22;5263;48.680;9.004;2022-10-19T17:19:08;12.80;99.90
10433;DHT22;5263;48.680;9.004;2022-10-19T17:21:36;12.70;99.90
10433;DHT22;5263;48.680;9.004;2022-10-19T17:24:04;12.70;99.90
10433;DHT22;5263;48.680;9.004;2022-10-19T17:26:33;12.60;99.90
10433;DHT22;5263;48.680;9.004;2022-10-19T17:28:59;12.70;99.90
10433;DHT22;5263;48.680;9.004;2022-10-19T17:31:28;12.70;99.90
10433;DHT22;5263;48.680;9.004;2022-10-19T17:33:54;12.70;99.90
10433;DHT22;5263;48.680;9.004;2022-10-19T17:36:25;12.50;99.90
10433;DHT22;5263;48.680;9.004;2022-10-19T17:38:56;12.60;99.90
10433;DHT22;5263;48.680;9.004;2022-10-19T17:41:23;12.60;99.90
10433;DHT22;5263;48.680;9.004;2022-10-19T17:43:49;12.60;99.90
10433;DHT22;5263;48.680;9.004;2022-10-19T17:46:18;12.70;99.90
10433;DHT22;5263;48.680;9.004;2022-10-19T17:48:47;12.70;99.90
10433;DHT22;5263;48.680;9.004;2022-10-19T17:51:18;12.70;99.90
10433;DHT22;5263;48.680;9.004;2022-10-19T17:53:55;12.80;99.90
10433;DHT22;5263;48.680;9.004;2022-10-19T17:56:57;12.70;99.90
10433;DHT22;5263;48.680;9.004;2022-10-19T18:09:55;13.10;99.90
10433;DHT22;5263;48.680;9.004;2022-10-19T18:12:56;12.90;99.90
10433;DHT22;5263;48.680;9.004;2022-10-19T18:15:32;13.00;99.90
10433;DHT22;5263;48.680;9.004;2022-10-19T18:18:08;13.10;99.90
10433;DHT22;5263;48.680;9.004;2022-10-19T18:20:42;13.20;99.90
10433;DHT22;5263;48.680;9.004;2022-10-19T18:23:11;13.20;99.90
10433;DHT22;5263;48.680;9.004;2022-10-19T18:26:02;13.20;99.90
10433;DHT22;5263;48.680;9.004;2022-10-19T18:29:08;13.20;99.90
10433;DHT22;5263;48.680;9.004;2022-10-19T18:31:47;13.30;99.90
10433;DHT22;5263;48.680;9.004;2022-10-19T18:34:20;13.30;99.90
10433;DHT22;5263;48.680;9.004;2022-10-19T18:36:57;13.40;99.90
10433;DHT22;5263;48.680;9.004;2022-10-19T18:39:40;13.50;99.90
10433;DHT22;5263;48.680;9.004;2022-10-19T18:42:06;13.40;99.90